Pitangui, Brazil
Current Conditions -  °F | °C
As of 6:07 AM on Monday 24 Nov 2014 (Local Time) from SBPR Reporting Station
Broken Clouds Broken Clouds  
Wind Chill: 70°   Ceiling: 8000
Heat Index: 70°   Visibility: 6mi
Dew Point: 66°   Wind: 5mph
Humidity: 88%   Direction: 140°SE
Pressure: 30.03"   Gusts: NA
Location:  19.68°S, 44.89°W
Report Text: SBPR 240807Z 14004KT 9999 SCT006 SCT020 BKN080 21/19 Q1017
Loading
Personal Weather Stations






























Interactive Weather Map New forecast layout! Learn more

10-Day Weather Forecast

Advertisements
Track Severe Weather on mobile